createdAt,value
2023-01-19T00:02:55.807Z,0.57
2023-01-19T00:05:58.811Z,0.50
2023-01-19T00:09:02.055Z,2.22
2023-01-19T00:12:06.706Z,1.70
2023-01-19T00:15:11.194Z,1.90
2023-01-19T00:18:14.817Z,1.63
2023-01-19T00:21:20.370Z,2.85
2023-01-19T00:24:23.249Z,1.42
2023-01-19T00:27:27.280Z,1.25
2023-01-19T00:30:31.184Z,1.10
2023-01-19T00:33:35.010Z,1.20
2023-01-19T00:36:38.027Z,0.43
2023-01-19T00:39:41.828Z,0.95
2023-01-19T00:42:48.791Z,0.77
2023-01-19T00:45:52.118Z,2.57
2023-01-19T00:48:55.154Z,2.35
2023-01-19T00:51:58.370Z,1.38
2023-01-19T00:55:01.366Z,1.38
2023-01-19T00:58:04.351Z,2.05
2023-01-19T01:01:08.123Z,1.88
2023-01-19T01:04:13.163Z,2.03
2023-01-19T01:07:16.259Z,0.43
2023-01-19T01:10:29.185Z,3.70
2023-01-19T01:13:33.099Z,1.10
2023-01-19T01:16:36.796Z,2.27
2023-01-19T01:19:39.919Z,0.47
2023-01-19T01:22:46.446Z,1.48
2023-01-19T01:25:49.584Z,1.63
2023-01-19T01:28:53.334Z,1.10
2023-01-19T01:31:56.460Z,2.55
2023-01-19T01:35:00.401Z,1.27
2023-01-19T01:38:04.404Z,1.63
2023-01-19T01:41:08.767Z,1.20
2023-01-19T01:44:50.495Z,1.50
2023-01-19T01:47:56.226Z,1.90
2023-01-19T01:51:25.080Z,4.60
2023-01-19T01:54:32.520Z,1.02
2023-01-19T01:57:39.916Z,1.88
2023-01-19T02:01:01.383Z,0.65
2023-01-19T02:04:04.599Z,0.90
2023-01-19T02:07:26.498Z,1.08
2023-01-19T02:10:48.507Z,1.87
2023-01-19T02:13:51.851Z,2.40
2023-01-19T02:16:56.080Z,4.22
2023-01-19T02:19:59.732Z,3.13
2023-01-19T02:23:07.703Z,3.08
2023-01-19T02:26:14.767Z,2.47
2023-01-19T02:29:24.749Z,1.42
2023-01-19T02:32:28.661Z,1.87
2023-01-19T02:35:32.979Z,1.52
2023-01-19T02:38:36.968Z,1.92
2023-01-19T02:41:48.733Z,1.90
2023-01-19T02:44:54.219Z,1.67
2023-01-19T02:47:57.940Z,1.30
2023-01-19T02:51:05.561Z,0.68
2023-01-19T02:54:36.383Z,2.17
2023-01-19T02:57:53.270Z,0.68
2023-01-19T03:01:17.509Z,0.52
2023-01-19T03:04:42.208Z,0.30
2023-01-19T03:08:38.484Z,0.30
2023-01-19T03:11:47.985Z,1.02
2023-01-19T03:14:52.470Z,0.83
2023-01-19T03:18:00.917Z,1.73
2023-01-19T03:21:08.039Z,1.73
2023-01-19T03:24:14.293Z,1.67
2023-01-19T03:27:41.949Z,0.82
2023-01-19T03:30:51.269Z,0.80
2023-01-19T03:33:58.305Z,0.63
2023-01-19T03:37:04.502Z,0.77
2023-01-19T03:40:09.578Z,0.68
2023-01-19T03:43:13.872Z,1.42
2023-01-19T03:46:19.295Z,0.47
2023-01-19T03:49:22.311Z,0.20
2023-01-19T03:52:32.987Z,0.20
2023-01-19T03:55:37.659Z,1.13
2023-01-19T03:58:42.881Z,0.82
2023-01-19T04:01:47.377Z,1.38
2023-01-19T04:04:50.566Z,1.30
2023-01-19T04:07:54.539Z,1.10
2023-01-19T04:10:58.988Z,0.75
2023-01-19T04:14:02.225Z,1.90
2023-01-19T04:17:05.262Z,1.10
2023-01-19T04:20:09.945Z,1.20
2023-01-19T04:23:12.946Z,1.55
2023-01-19T04:26:16.143Z,1.45
2023-01-19T04:29:19.188Z,0.88
2023-01-19T04:32:22.407Z,0.95
2023-01-19T04:35:26.199Z,1.15
2023-01-19T04:38:29.366Z,1.93
2023-01-19T04:41:32.967Z,0.88
2023-01-19T04:44:36.956Z,0.90
2023-01-19T04:47:40.833Z,1.63
2023-01-19T04:50:43.809Z,0.63
2023-01-19T04:53:47.675Z,2.83
2023-01-19T04:56:51.172Z,2.80
2023-01-19T04:59:54.811Z,0.90
2023-01-19T05:02:58.067Z,1.85
2023-01-19T05:06:01.299Z,0.90
2023-01-19T05:09:05.018Z,1.57
2023-01-19T05:12:09.071Z,1.02
2023-01-19T05:15:12.462Z,2.20
2023-01-19T05:18:16.246Z,1.13
2023-01-19T05:21:20.525Z,0.80
2023-01-19T05:24:23.387Z,1.90
2023-01-19T05:27:27.494Z,1.95
2023-01-19T05:30:31.105Z,0.55
2023-01-19T05:33:34.528Z,0.93
2023-01-19T05:36:37.565Z,1.48
2023-01-19T05:39:40.883Z,1.27
2023-01-19T05:42:43.876Z,1.05
2023-01-19T05:45:47.282Z,0.05
2023-01-19T05:48:50.216Z,0.60
2023-01-19T05:51:53.474Z,0.75
2023-01-19T05:54:57.229Z,0.95
2023-01-19T05:58:02.308Z,0.60
2023-01-19T06:01:07.466Z,0.55
2023-01-19T06:04:11.456Z,0.85
2023-01-19T06:07:14.502Z,0.65
2023-01-19T06:10:17.963Z,1.63
2023-01-19T06:13:21.948Z,0.82
2023-01-19T06:16:26.109Z,1.73
2023-01-19T06:19:29.106Z,1.27
2023-01-19T06:22:33.100Z,1.73
2023-01-19T06:25:37.188Z,1.98
2023-01-19T06:28:41.220Z,0.90
2023-01-19T06:31:44.903Z,2.53
2023-01-19T06:34:49.081Z,1.90
2023-01-19T06:37:53.921Z,1.33
2023-01-19T06:41:03.967Z,0.95
2023-01-19T06:44:07.674Z,1.02
2023-01-19T06:47:15.303Z,1.02
2023-01-19T06:50:19.832Z,1.30
2023-01-19T06:53:24.213Z,2.45
2023-01-19T06:56:28.547Z,1.45
2023-01-19T06:59:32.769Z,1.73
2023-01-19T07:02:36.985Z,2.20
2023-01-19T07:05:40.806Z,2.83
2023-01-19T07:08:44.614Z,1.95
2023-01-19T07:11:49.420Z,1.83
2023-01-19T07:14:53.237Z,1.13
2023-01-19T07:17:59.697Z,0.77
2023-01-19T07:21:06.031Z,1.67
2023-01-19T07:24:09.990Z,1.67
2023-01-19T07:27:13.916Z,1.83
2023-01-19T07:30:18.250Z,2.55
2023-01-19T07:33:23.080Z,3.08
2023-01-19T07:36:27.156Z,4.40
2023-01-19T07:39:32.538Z,3.45
2023-01-19T07:42:36.857Z,2.28
2023-01-19T07:45:40.080Z,3.28
2023-01-19T07:48:45.469Z,4.00
2023-01-19T07:51:49.229Z,4.37
2023-01-19T07:54:52.734Z,3.55
2023-01-19T07:57:56.738Z,3.72
2023-01-19T08:01:00.623Z,3.92
2023-01-19T08:04:04.455Z,4.68
2023-01-19T08:07:08.016Z,4.03
2023-01-19T08:10:15.417Z,3.13
2023-01-19T08:13:19.271Z,2.38
2023-01-19T08:16:23.183Z,2.45
2023-01-19T08:19:27.342Z,4.17
2023-01-19T08:22:30.952Z,4.70
2023-01-19T08:25:41.735Z,8.00
2023-01-19T08:28:45.290Z,7.72
2023-01-19T08:31:49.087Z,3.88
2023-01-19T08:34:52.738Z,2.30
2023-01-19T08:37:56.926Z,2.85
2023-01-19T08:41:00.585Z,4.23
2023-01-19T08:44:03.945Z,1.25
2023-01-19T08:47:08.899Z,2.63
2023-01-19T08:50:12.741Z,4.97
2023-01-19T08:53:16.957Z,4.72
2023-01-19T08:56:20.908Z,7.30
2023-01-19T08:59:25.060Z,2.05
2023-01-19T09:02:28.903Z,5.95
2023-01-19T09:05:39.581Z,7.25
2023-01-19T09:08:45.679Z,5.00
2023-01-19T09:11:49.926Z,2.63
2023-01-19T09:14:53.522Z,4.35
2023-01-19T09:17:57.338Z,6.25
2023-01-19T09:21:01.950Z,4.17
2023-01-19T09:24:05.440Z,7.88
2023-01-19T09:27:09.087Z,5.28
2023-01-19T09:30:13.181Z,6.40
2023-01-19T09:33:18.837Z,6.35
2023-01-19T09:36:22.490Z,3.97
2023-01-19T09:39:25.467Z,3.25
2023-01-19T09:42:43.142Z,4.87
2023-01-19T09:45:52.679Z,1.50
2023-01-19T09:48:59.679Z,4.15
2023-01-19T09:52:03.822Z,4.63
2023-01-19T09:55:21.608Z,2.63
2023-01-19T09:58:25.403Z,2.08
2023-01-19T10:01:50.876Z,2.03
2023-01-19T10:05:18.006Z,1.73
2023-01-19T10:08:29.222Z,1.55
2023-01-19T10:11:53.802Z,1.73
2023-01-19T10:15:15.493Z,2.40
2023-01-19T10:18:37.583Z,4.10
2023-01-19T10:21:45.912Z,2.42
2023-01-19T10:24:54.358Z,4.07
2023-01-19T10:28:01.360Z,4.53
2023-01-19T10:31:06.863Z,3.30
2023-01-19T10:34:21.667Z,3.05
2023-01-19T10:37:37.583Z,6.97
2023-01-19T10:40:54.218Z,2.85
2023-01-19T10:44:03.755Z,5.78
2023-01-19T10:47:17.621Z,1.90
2023-01-19T10:50:33.725Z,4.75
2023-01-19T10:53:38.737Z,1.85
2023-01-19T10:56:45.096Z,3.13
2023-01-19T10:59:53.227Z,2.78
2023-01-19T11:02:57.600Z,4.88
2023-01-19T11:06:22.098Z,3.53
2023-01-19T11:09:25.383Z,2.15
2023-01-19T11:12:29.171Z,1.88
2023-01-19T11:15:36.929Z,4.45
2023-01-19T11:18:41.991Z,3.93
2023-01-19T11:21:48.777Z,1.70
2023-01-19T11:24:53.224Z,0.15
2023-01-19T11:27:58.865Z,2.07
2023-01-19T11:31:17.239Z,0.55
2023-01-19T11:34:33.900Z,2.67
2023-01-19T11:37:37.410Z,2.10
2023-01-19T11:40:42.694Z,1.90
2023-01-19T11:43:49.461Z,1.55
2023-01-19T11:47:00.562Z,2.30
2023-01-19T11:50:29.362Z,1.40
2023-01-19T11:53:36.693Z,1.25
2023-01-19T11:56:43.799Z,0.88
2023-01-19T11:59:52.669Z,1.77
2023-01-19T12:03:19.793Z,0.73
2023-01-19T12:06:48.329Z,6.40
2023-01-19T12:09:56.127Z,2.97
2023-01-19T12:13:00.062Z,5.07
2023-01-19T12:16:14.502Z,8.95
2023-01-19T12:19:22.257Z,5.32
2023-01-19T12:22:29.203Z,1.63
2023-01-19T12:26:23.643Z,1.45
2023-01-19T12:29:34.107Z,3.92
2023-01-19T12:32:38.128Z,3.00
2023-01-19T12:36:02.798Z,2.22
2023-01-19T12:39:22.479Z,0.75
2023-01-19T12:42:27.521Z,2.22
2023-01-19T12:45:35.817Z,2.05
2023-01-19T12:48:39.707Z,4.00
2023-01-19T12:51:43.435Z,4.05
2023-01-19T12:54:56.886Z,3.97
2023-01-19T12:58:03.062Z,2.42
2023-01-19T13:01:22.074Z,1.27
2023-01-19T13:04:34.764Z,1.90
2023-01-19T13:08:03.236Z,0.93
2023-01-19T13:11:06.914Z,2.05
2023-01-19T13:14:36.009Z,0.85
2023-01-19T13:17:51.836Z,2.83
2023-01-19T13:21:05.538Z,0.98
2023-01-19T13:24:10.974Z,0.77
2023-01-19T13:27:15.096Z,1.27
2023-01-19T13:30:22.747Z,2.47
2023-01-19T13:33:30.982Z,1.58
2023-01-19T13:36:36.314Z,1.80
2023-01-19T13:39:44.891Z,1.10
2023-01-19T13:42:49.399Z,1.02
2023-01-19T13:45:56.058Z,1.23
2023-01-19T13:49:12.388Z,0.63
2023-01-19T13:52:24.649Z,0.35
2023-01-19T13:55:29.620Z,1.58
2023-01-19T13:58:36.177Z,3.10
2023-01-19T14:01:42.553Z,0.63
2023-01-19T14:04:46.380Z,1.70
2023-01-19T14:07:49.662Z,2.47
2023-01-19T14:10:56.848Z,1.27
2023-01-19T14:13:59.933Z,1.48
2023-01-19T14:17:03.970Z,2.75
2023-01-19T14:20:07.869Z,2.80
2023-01-19T14:23:41.729Z,2.70
2023-01-19T14:26:48.260Z,1.80
2023-01-19T14:29:54.389Z,0.43
2023-01-19T14:32:58.553Z,2.13
2023-01-19T14:36:35.358Z,1.83
2023-01-19T14:39:39.118Z,2.00
2023-01-19T14:42:52.868Z,5.65
2023-01-19T14:45:58.932Z,5.20
2023-01-19T14:49:06.552Z,1.13
2023-01-19T14:52:25.876Z,2.65
2023-01-19T14:55:46.920Z,2.45
2023-01-19T14:58:50.557Z,1.88
2023-01-19T15:01:54.232Z,0.57
2023-01-19T15:04:58.873Z,2.78
2023-01-19T15:08:04.438Z,2.90
2023-01-19T15:11:17.816Z,8.17
2023-01-19T15:14:22.669Z,3.63
2023-01-19T15:17:26.461Z,2.17
2023-01-19T15:20:30.280Z,2.45
2023-01-19T15:23:34.590Z,2.00
2023-01-19T15:26:43.222Z,4.13
2023-01-19T15:29:47.021Z,1.73
2023-01-19T15:32:50.946Z,2.00
2023-01-19T15:35:55.332Z,2.03
2023-01-19T15:38:58.821Z,1.20
2023-01-19T15:42:02.810Z,2.77
2023-01-19T15:45:45.635Z,2.47
2023-01-19T15:48:49.768Z,1.85
2023-01-19T15:51:52.737Z,3.33
2023-01-19T15:54:55.675Z,5.10
2023-01-19T15:58:02.064Z,1.42
2023-01-19T16:01:06.169Z,3.47
2023-01-19T16:04:12.244Z,3.97
2023-01-19T16:07:15.876Z,3.97
2023-01-19T16:10:19.192Z,3.13
2023-01-19T16:13:22.575Z,1.37
2023-01-19T16:16:27.223Z,1.88
2023-01-19T16:19:30.238Z,4.43
2023-01-19T16:22:33.401Z,1.52
2023-01-19T16:25:37.239Z,1.38
2023-01-19T16:28:40.227Z,3.67
2023-01-19T16:31:46.298Z,1.17
2023-01-19T16:34:49.604Z,2.13
2023-01-19T16:37:53.203Z,0.75
2023-01-19T16:40:57.026Z,3.95
2023-01-19T16:44:00.839Z,11.83
2023-01-19T16:47:04.431Z,6.03
2023-01-19T16:50:12.116Z,6.68
2023-01-19T16:53:15.602Z,12.35
2023-01-19T16:56:19.560Z,11.57
2023-01-19T16:59:23.348Z,15.95
2023-01-19T17:02:26.318Z,5.82
2023-01-19T17:05:32.601Z,9.33
2023-01-19T17:08:36.251Z,10.77
2023-01-19T17:11:40.875Z,9.13
2023-01-19T17:14:44.013Z,13.83
2023-01-19T17:17:47.112Z,8.40
2023-01-19T17:20:50.754Z,10.60
2023-01-19T17:23:56.035Z,16.60
2023-01-19T17:26:59.306Z,15.35
2023-01-19T17:30:04.540Z,23.75
2023-01-19T17:33:08.205Z,16.05
2023-01-19T17:36:15.440Z,19.10
2023-01-19T17:39:19.051Z,12.65
2023-01-19T17:42:23.093Z,7.70
2023-01-19T17:45:26.835Z,11.67
2023-01-19T17:48:30.481Z,17.08
2023-01-19T17:51:34.771Z,11.75
2023-01-19T17:54:38.801Z,21.38
2023-01-19T17:57:42.415Z,11.93
2023-01-19T18:00:46.499Z,12.88
2023-01-19T18:03:50.891Z,13.15
2023-01-19T18:06:54.367Z,18.40
2023-01-19T18:10:00.831Z,18.45
2023-01-19T18:13:04.721Z,8.07
2023-01-19T18:16:10.837Z,7.30
2023-01-19T18:19:14.250Z,5.88
2023-01-19T18:22:17.190Z,6.55
2023-01-19T18:25:21.308Z,9.18
2023-01-19T18:28:25.102Z,9.57
2023-01-19T18:31:29.598Z,8.80
2023-01-19T18:34:33.277Z,8.18
2023-01-19T18:37:37.256Z,2.47
2023-01-19T18:40:41.032Z,2.47
2023-01-19T18:43:45.890Z,3.90
2023-01-19T18:46:49.950Z,2.07
2023-01-19T18:49:53.252Z,7.43
2023-01-19T18:52:57.260Z,5.85
2023-01-19T18:56:05.206Z,5.60
2023-01-19T18:59:08.275Z,4.47
2023-01-19T19:02:12.292Z,9.98
2023-01-19T19:05:16.053Z,7.43
2023-01-19T19:08:19.330Z,14.10
2023-01-19T19:11:25.060Z,4.97
2023-01-19T19:14:29.117Z,6.50
2023-01-19T19:17:32.867Z,7.03
2023-01-19T19:20:39.827Z,6.70
2023-01-19T19:23:54.400Z,9.65
2023-01-19T19:27:00.471Z,6.57
2023-01-19T19:30:05.633Z,4.22
2023-01-19T19:33:08.680Z,6.40
2023-01-19T19:36:13.285Z,12.55
2023-01-19T19:39:18.014Z,4.37
2023-01-19T19:42:21.754Z,11.43
2023-01-19T19:45:25.376Z,5.32
2023-01-19T19:48:29.133Z,0.10
2023-01-19T19:51:32.469Z,6.05
2023-01-19T19:54:35.433Z,4.53
2023-01-19T19:57:38.642Z,5.53
2023-01-19T20:00:44.711Z,3.47
2023-01-19T20:03:48.219Z,6.20
2023-01-19T20:06:51.464Z,9.70
2023-01-19T20:09:55.538Z,7.20
2023-01-19T20:12:59.279Z,10.55
2023-01-19T20:16:06.975Z,9.95
2023-01-19T20:19:11.494Z,13.13
2023-01-19T20:22:14.519Z,10.18
2023-01-19T20:25:17.520Z,8.43
2023-01-19T20:28:20.961Z,17.15
2023-01-19T20:31:37.842Z,5.88
2023-01-19T20:34:40.933Z,4.15
2023-01-19T20:37:44.635Z,6.38
2023-01-19T20:40:47.605Z,5.63
2023-01-19T20:43:50.874Z,9.38
2023-01-19T20:46:56.212Z,5.13
2023-01-19T20:49:59.195Z,4.40
2023-01-19T20:53:03.147Z,6.70
2023-01-19T20:56:12.464Z,6.70
2023-01-19T20:59:16.144Z,2.40
2023-01-19T21:02:19.373Z,8.40
2023-01-19T21:05:23.844Z,7.32
2023-01-19T21:08:26.817Z,3.22
2023-01-19T21:11:30.289Z,2.27
2023-01-19T21:14:34.026Z,4.72
2023-01-19T21:17:37.378Z,4.82
2023-01-19T21:20:40.322Z,3.40
2023-01-19T21:23:45.123Z,6.30
2023-01-19T21:27:04.004Z,4.30
2023-01-19T21:30:07.916Z,12.68
2023-01-19T21:33:11.752Z,7.93
2023-01-19T21:36:15.084Z,8.18
2023-01-19T21:39:18.773Z,3.40
2023-01-19T21:42:21.842Z,0.73
2023-01-19T21:45:24.869Z,4.00
2023-01-19T21:48:27.892Z,2.67
2023-01-19T21:51:36.163Z,4.27
2023-01-19T21:54:39.143Z,6.97
2023-01-19T21:57:42.786Z,3.33
2023-01-19T22:00:46.449Z,6.95
2023-01-19T22:03:50.127Z,6.13
2023-01-19T22:06:53.047Z,7.32
2023-01-19T22:09:56.016Z,5.38
2023-01-19T22:12:58.995Z,7.03
2023-01-19T22:16:09.145Z,10.00
2023-01-19T22:19:13.517Z,5.68
2023-01-19T22:22:16.492Z,20.57
2023-01-19T22:25:22.633Z,11.90
2023-01-19T22:28:25.605Z,12.43
2023-01-19T22:31:31.313Z,14.05
2023-01-19T22:34:35.359Z,6.97
2023-01-19T22:37:38.672Z,4.88
2023-01-19T22:40:41.633Z,24.50
2023-01-19T22:43:45.181Z,1.57
2023-01-19T22:46:50.371Z,22.17
2023-01-19T22:49:54.076Z,19.35
2023-01-19T22:52:58.281Z,28.83
2023-01-19T22:56:01.985Z,13.50
2023-01-19T22:59:06.586Z,7.88
2023-01-19T23:02:10.813Z,16.60
2023-01-19T23:05:14.751Z,12.05
2023-01-19T23:08:18.512Z,4.85
2023-01-19T23:11:23.971Z,3.30
2023-01-19T23:14:27.768Z,11.80
2023-01-19T23:17:30.805Z,4.43
2023-01-19T23:20:34.485Z,13.25
2023-01-19T23:23:38.219Z,16.03
2023-01-19T23:26:41.270Z,13.95
2023-01-19T23:29:44.177Z,15.30
2023-01-19T23:32:49.340Z,13.40
2023-01-19T23:35:54.956Z,4.72
2023-01-19T23:39:00.943Z,7.68
2023-01-19T23:42:05.704Z,4.05
2023-01-19T23:45:10.223Z,11.73
2023-01-19T23:48:13.641Z,5.05
2023-01-19T23:51:19.966Z,19.38
2023-01-19T23:54:24.016Z,2.53
2023-01-19T23:57:28.128Z,10.82
